Time;durP1;ratioP1;P1;durP2;ratioP2;P2;SDS_P1;SDS_P2;PMS_P1;PMS_P2;Temp;Humidity;BMP_temperature;BMP_pressure;BME280_temperature;BME280_humidity;BME280_pressure;Samples;Min_cycle;Max_cycle;Signal;HPM_P1;HPM_P2
2022/06/11 00:01:56;;;;;;;1.10;0.60;;;24.30;47.50;;;;;;5054971;28;20044;-65
2022/06/11 00:04:38;;;;;;;0.60;0.60;;;24.30;47.50;;;;;;5058735;28;20065;-65
2022/06/11 00:07:07;;;;;;;0.68;0.60;;;24.30;47.50;;;;;;5056516;28;20384;-66
2022/06/11 00:09:33;;;;;;;0.70;0.60;;;24.30;47.50;;;;;;5055783;28;20044;-63
2022/06/11 00:11:59;;;;;;;0.80;0.60;;;24.30;47.50;;;;;;5057004;28;20468;-65
2022/06/11 00:14:28;;;;;;;0.60;0.60;;;24.30;47.50;;;;;;5056137;28;20035;-63
2022/06/11 00:16:55;;;;;;;0.95;0.60;;;24.30;47.50;;;;;;5058596;28;20052;-66
2022/06/11 00:19:21;;;;;;;0.68;0.60;;;24.30;47.50;;;;;;5057247;28;20039;-63
2022/06/11 00:21:49;;;;;;;0.73;0.70;;;24.30;47.50;;;;;;5056495;28;20614;-65
2022/06/11 00:24:15;;;;;;;0.52;0.50;;;24.30;47.50;;;;;;5054924;28;20086;-65
2022/06/11 00:26:42;;;;;;;1.00;0.68;;;24.30;47.50;;;;;;5057696;28;20044;-61
2022/06/11 00:29:08;;;;;;;0.82;0.60;;;24.30;47.50;;;;;;5057385;28;20040;-65
2022/06/11 00:31:34;;;;;;;0.57;0.57;;;24.30;47.50;;;;;;5056139;28;20067;-66
2022/06/11 00:34:00;;;;;;;0.55;0.55;;;24.20;47.50;;;;;;5055838;28;20093;-65
2022/06/11 00:36:26;;;;;;;0.57;0.50;;;24.30;47.50;;;;;;5057672;28;20043;-66
2022/06/11 00:38:52;;;;;;;0.70;0.60;;;24.30;47.50;;;;;;5056333;28;20033;-66
2022/06/11 00:41:21;;;;;;;0.57;0.50;;;24.30;47.50;;;;;;5039878;28;20047;-65
2022/06/11 00:43:47;;;;;;;0.70;0.60;;;24.30;47.50;;;;;;5058675;28;20037;-63
2022/06/11 00:46:34;;;;;;;0.77;0.60;;;24.20;47.50;;;;;;5055885;28;20093;-63
2022/06/11 00:49:01;;;;;;;0.57;0.52;;;24.20;47.40;;;;;;5058322;28;20032;-66
2022/06/11 00:51:27;;;;;;;0.63;0.60;;;24.30;47.50;;;;;;5057441;28;20361;-62
2022/06/11 00:53:59;;;;;;;0.60;0.60;;;24.30;47.50;;;;;;5054844;28;20093;-66
2022/06/11 00:56:30;;;;;;;0.57;0.50;;;24.30;47.50;;;;;;5056360;28;20422;-65
2022/06/11 00:58:59;;;;;;;0.55;0.50;;;24.20;47.50;;;;;;5057156;28;20012;-62
2022/06/11 01:01:25;;;;;;;0.82;0.50;;;24.20;47.50;;;;;;5055138;28;20171;-65
2022/06/11 01:03:55;;;;;;;0.70;0.60;;;24.20;47.50;;;;;;5058043;28;20076;-65
2022/06/11 01:06:24;;;;;;;1.08;0.80;;;24.20;47.50;;;;;;5058074;28;20507;-65
2022/06/11 01:09:00;;;;;;;0.70;0.65;;;24.20;47.50;;;;;;5056998;28;20479;-64
2022/06/11 01:11:40;;;;;;;0.60;0.60;;;24.20;47.50;;;;;;5057132;28;20025;-63
2022/06/11 01:14:14;;;;;;;0.50;0.50;;;24.20;47.50;;;;;;5056836;28;20121;-62
2022/06/11 01:17:06;;;;;;;1.73;0.50;;;24.20;47.50;;;;;;5056122;28;20032;-66
2022/06/11 01:19:55;;;;;;;0.80;0.60;;;24.20;47.50;;;;;;5062519;28;20032;-63
2022/06/11 01:22:39;;;;;;;0.70;0.60;;;24.20;47.50;;;;;;5063724;28;20020;-65
2022/06/11 01:25:11;;;;;;;0.70;0.60;;;24.20;47.50;;;;;;5059987;28;20051;-65
2022/06/11 01:27:48;;;;;;;0.70;0.60;;;24.20;47.50;;;;;;5064466;28;20520;-65
2022/06/11 01:30:28;;;;;;;0.50;0.50;;;24.20;47.50;;;;;;5058654;28;20024;-65
2022/06/11 01:33:29;;;;;;;1.25;0.70;;;24.20;47.50;;;;;;5063983;28;20452;-65
2022/06/11 01:36:30;;;;;;;0.70;0.60;;;24.20;47.50;;;;;;5062576;28;20082;-65
2022/06/11 01:39:09;;;;;;;0.60;0.60;;;24.20;47.50;;;;;;5060938;28;20020;-64
2022/06/11 01:41:53;;;;;;;0.35;0.35;;;24.10;47.50;;;;;;5064091;28;20048;-65
2022/06/11 01:44:38;;;;;;;0.85;0.60;;;24.20;47.50;;;;;;5063173;28;21367;-66
2022/06/11 01:47:06;;;;;;;0.63;0.55;;;24.20;47.50;;;;;;5064797;28;20071;-63
2022/06/11 01:49:38;;;;;;;0.40;0.40;;;24.20;47.60;;;;;;5063926;28;20020;-63
2022/06/11 01:52:19;;;;;;;0.77;0.60;;;24.20;47.60;;;;;;5063110;28;20059;-65
2022/06/11 01:54:58;;;;;;;0.60;0.60;;;24.20;47.60;;;;;;5060213;28;20032;-65
2022/06/11 01:57:42;;;;;;;;;;;24.20;47.60;;;;;;5063123;28;20032;-65
2022/06/11 02:00:40;;;;;;;0.57;0.57;;;24.10;47.50;;;;;;5062065;28;20031;-63
2022/06/11 02:03:11;;;;;;;0.57;0.57;;;24.10;47.50;;;;;;5033563;28;20055;-65
2022/06/11 02:05:59;;;;;;;0.50;0.50;;;24.10;47.50;;;;;;5063199;28;20163;-62
2022/06/11 02:09:02;;;;;;;0.60;0.60;;;24.10;47.50;;;;;;5061559;28;20024;-62
2022/06/11 02:11:45;;;;;;;0.70;0.70;;;24.10;47.50;;;;;;5045231;28;20047;-65
2022/06/11 02:14:20;;;;;;;0.68;0.60;;;24.10;47.50;;;;;;5063860;28;20036;-62
2022/06/11 02:16:54;;;;;;;1.10;0.60;;;24.10;47.50;;;;;;5063040;28;20020;-65
2022/06/11 02:19:42;;;;;;;0.68;0.50;;;24.10;47.50;;;;;;5060151;28;20430;-63
2022/06/11 02:22:13;;;;;;;0.60;0.60;;;24.10;47.60;;;;;;5062549;28;20025;-64
2022/06/11 02:24:46;;;;;;;0.55;0.47;;;24.10;47.60;;;;;;5060613;28;20482;-62
2022/06/11 02:27:17;;;;;;;0.55;0.50;;;24.10;47.60;;;;;;5063697;28;20020;-65
2022/06/11 02:29:44;;;;;;;0.50;0.50;;;24.10;47.60;;;;;;5041230;28;20032;-65
2022/06/11 02:32:16;;;;;;;0.65;0.50;;;24.10;47.60;;;;;;5060833;28;20057;-63
2022/06/11 02:34:52;;;;;;;0.50;0.50;;;24.10;47.60;;;;;;5058648;28;20502;-65
2022/06/11 02:37:25;;;;;;;0.40;0.40;;;24.10;47.60;;;;;;5059043;28;20428;-61
2022/06/11 02:39:54;;;;;;;0.50;0.50;;;24.10;47.60;;;;;;5057860;28;20070;-62
2022/06/11 02:42:21;;;;;;;0.60;0.60;;;24.10;47.60;;;;;;5060038;28;20016;-65
2022/06/11 02:44:47;;;;;;;0.57;0.57;;;24.10;47.60;;;;;;5058945;28;20028;-62
2022/06/11 02:47:15;;;;;;;0.90;0.60;;;24.10;47.60;;;;;;5059866;28;20032;-65
2022/06/11 02:49:42;;;;;;;1.02;0.68;;;24.10;47.60;;;;;;5059347;28;20124;-65
2022/06/11 02:52:16;;;;;;;0.50;0.50;;;24.10;47.60;;;;;;5054391;28;20113;-63
2022/06/11 02:54:43;;;;;;;0.50;0.50;;;24.10;47.60;;;;;;5058280;28;20099;-65
2022/06/11 02:57:13;;;;;;;0.47;0.47;;;24.10;47.60;;;;;;5059917;28;20648;-65
2022/06/11 02:59:40;;;;;;;0.50;0.50;;;24.10;47.70;;;;;;5060012;28;20039;-66
2022/06/11 03:02:07;;;;;;;0.52;0.52;;;24.10;47.60;;;;;;5060376;28;20036;-62
2022/06/11 03:04:32;;;;;;;0.52;0.50;;;24.00;47.60;;;;;;5041747;28;20137;-66
2022/06/11 03:07:00;;;;;;;0.77;0.60;;;24.00;47.60;;;;;;5059126;28;20063;-63
2022/06/11 03:09:29;;;;;;;0.73;0.60;;;24.10;47.60;;;;;;5058178;28;20033;-64
2022/06/11 03:11:55;;;;;;;0.77;0.50;;;24.00;47.60;;;;;;5059579;28;20052;-63
2022/06/11 03:14:21;;;;;;;0.63;0.60;;;24.00;47.60;;;;;;5058768;28;20024;-65
2022/06/11 03:16:47;;;;;;;0.50;0.50;;;24.00;47.60;;;;;;5060707;28;20653;-65
2022/06/11 03:19:13;;;;;;;0.85;0.60;;;24.00;47.60;;;;;;5059394;28;20047;-65
2022/06/11 03:21:40;;;;;;;0.90;0.60;;;24.00;47.60;;;;;;5058740;28;20024;-65
2022/06/11 03:24:07;;;;;;;1.20;0.65;;;24.00;47.60;;;;;;5055781;28;20786;-65
2022/06/11 03:26:33;;;;;;;0.60;0.60;;;24.00;47.60;;;;;;5057613;28;20021;-64
2022/06/11 03:28:59;;;;;;;0.60;0.50;;;24.00;47.60;;;;;;5058665;28;20051;-65
2022/06/11 03:31:25;;;;;;;0.70;0.60;;;24.00;47.60;;;;;;5058863;28;20395;-63
2022/06/11 03:33:50;;;;;;;0.60;0.57;;;24.00;47.60;;;;;;5057841;28;20224;-64
2022/06/11 03:36:18;;;;;;;0.60;0.60;;;24.00;47.60;;;;;;5058167;28;20508;-63
2022/06/11 03:38:45;;;;;;;0.50;0.50;;;24.00;47.60;;;;;;5056453;28;20122;-65
2022/06/11 03:41:11;;;;;;;0.60;0.60;;;24.00;47.60;;;;;;5059162;28;21384;-61
2022/06/11 03:43:38;;;;;;;0.50;0.50;;;24.00;47.60;;;;;;5056965;28;20029;-61
2022/06/11 03:46:04;;;;;;;0.60;0.60;;;24.00;47.60;;;;;;5058453;28;20024;-62
2022/06/11 03:48:30;;;;;;;0.98;0.60;;;24.00;47.60;;;;;;5057731;28;20105;-64
2022/06/11 03:50:59;;;;;;;0.40;0.40;;;24.00;47.60;;;;;;5059019;28;20028;-64
2022/06/11 03:53:27;;;;;;;0.70;0.50;;;24.00;47.60;;;;;;5056411;28;20039;-64
2022/06/11 03:55:53;;;;;;;0.63;0.60;;;24.00;47.70;;;;;;5058092;28;20032;-63
2022/06/11 03:58:20;;;;;;;0.60;0.50;;;23.90;47.60;;;;;;5057117;28;20036;-65
2022/06/11 04:03:30;;;;;;;0.90;0.60;;;24.00;47.70;;;;;;5058535;28;20073;-65
2022/06/11 04:05:56;;;;;;;0.50;0.50;;;24.00;47.70;;;;;;5058229;28;20044;-65
2022/06/11 04:08:24;;;;;;;0.68;0.50;;;23.90;47.60;;;;;;5058500;28;20444;-61
2022/06/11 04:10:50;;;;;;;0.77;0.60;;;23.90;48.10;;;;;;5056802;28;20040;-65
2022/06/11 04:13:17;;;;;;;0.50;0.50;;;23.90;47.60;;;;;;5054946;28;20086;-65
2022/06/11 04:15:44;;;;;;;0.50;0.50;;;23.90;47.60;;;;;;5050322;28;20103;-62
2022/06/11 04:18:30;;;;;;;0.60;0.57;;;23.90;47.60;;;;;;5057244;28;20024;-67
2022/06/11 04:20:56;;;;;;;0.57;0.57;;;23.90;47.60;;;;;;5056995;28;20029;-61
2022/06/11 04:23:24;;;;;;;0.60;0.60;;;23.90;47.60;;;;;;5056786;28;20512;-64
2022/06/11 04:25:51;;;;;;;0.50;0.50;;;23.90;47.60;;;;;;5055323;28;20376;-65
2022/06/11 04:28:17;;;;;;;0.80;0.60;;;23.90;47.60;;;;;;5055831;28;20048;-66
2022/06/11 04:30:42;;;;;;;0.50;0.50;;;23.90;47.60;;;;;;5054990;28;20128;-64
2022/06/11 04:33:08;;;;;;;1.10;0.50;;;23.90;47.60;;;;;;5056011;28;20067;-65
2022/06/11 04:35:34;;;;;;;0.93;0.57;;;23.90;47.60;;;;;;5054849;28;20464;-64
2022/06/11 04:37:59;;;;;;;0.50;0.50;;;23.90;47.60;;;;;;5054857;28;20021;-65
2022/06/11 04:40:25;;;;;;;0.60;0.60;;;23.90;47.70;;;;;;5054878;28;20074;-63
2022/06/11 04:42:51;;;;;;;0.82;0.70;;;23.90;47.60;;;;;;5054249;28;20025;-62
2022/06/11 04:45:18;;;;;;;0.70;0.60;;;23.90;47.60;;;;;;5054651;28;20382;-64
2022/06/11 04:47:44;;;;;;;0.60;0.60;;;23.90;47.60;;;;;;5053814;28;20166;-64
2022/06/11 04:50:15;;;;;;;0.60;0.60;;;23.90;47.60;;;;;;5055814;28;20131;-65
2022/06/11 04:52:40;;;;;;;0.60;0.60;;;23.90;47.60;;;;;;5051688;28;20087;-64
2022/06/11 04:55:06;;;;;;;0.60;0.60;;;23.90;47.70;;;;;;5053786;28;20028;-63
2022/06/11 04:57:33;;;;;;;0.90;0.50;;;23.90;47.70;;;;;;5055521;28;20028;-66
2022/06/11 04:59:58;;;;;;;0.88;0.60;;;23.90;47.70;;;;;;5053869;28;20086;-63
2022/06/11 05:02:24;;;;;;;0.60;0.60;;;23.90;47.70;;;;;;5054249;28;20052;-62
2022/06/11 05:04:53;;;;;;;0.50;0.50;;;23.90;47.70;;;;;;5056526;28;20031;-65
2022/06/11 05:07:20;;;;;;;0.50;0.50;;;23.90;47.70;;;;;;5055214;28;20094;-65
2022/06/11 05:09:46;;;;;;;0.60;0.60;;;23.90;47.70;;;;;;5053024;28;20045;-63
2022/06/11 05:12:12;;;;;;;0.50;0.50;;;23.90;47.70;;;;;;5054842;28;20132;-66
2022/06/11 05:14:38;;;;;;;0.50;0.50;;;23.90;47.70;;;;;;5054334;28;20123;-63
2022/06/11 05:17:04;;;;;;;0.57;0.57;;;23.90;47.70;;;;;;5056710;28;20146;-65
2022/06/11 05:19:30;;;;;;;0.50;0.50;;;23.90;47.70;;;;;;5053948;28;20036;-66
2022/06/11 05:21:56;;;;;;;0.60;0.60;;;23.90;47.70;;;;;;5054658;28;20433;-66
2022/06/11 05:24:22;;;;;;;0.50;0.50;;;23.80;47.60;;;;;;5052932;28;20073;-63
2022/06/11 05:26:58;;;;;;;0.50;0.50;;;23.90;47.70;;;;;;5054537;28;20042;-63
2022/06/11 05:29:32;;;;;;;0.55;0.55;;;23.90;47.70;;;;;;5054717;28;20101;-63
2022/06/11 05:31:58;;;;;;;0.60;0.60;;;23.80;47.70;;;;;;5046142;28;20761;-65
2022/06/11 05:34:25;;;;;;;0.70;0.57;;;23.80;47.70;;;;;;5034570;28;20112;-66
2022/06/11 05:36:51;;;;;;;0.50;0.50;;;23.80;47.70;;;;;;5035547;28;20040;-63
2022/06/11 05:39:17;;;;;;;0.50;0.50;;;23.80;47.70;;;;;;5032178;28;20040;-65
2022/06/11 05:41:42;;;;;;;0.50;0.50;;;23.80;47.70;;;;;;5035558;28;20346;-64
2022/06/11 05:44:08;;;;;;;0.60;0.50;;;23.80;47.70;;;;;;5034043;28;20043;-61
2022/06/11 05:46:35;;;;;;;0.57;0.57;;;23.80;47.70;;;;;;5034034;28;20070;-65
2022/06/11 05:49:05;;;;;;;0.65;0.52;;;23.80;47.70;;;;;;5034907;28;20026;-61
2022/06/11 05:51:35;;;;;;;0.55;0.50;;;23.80;47.70;;;;;;5034246;28;20037;-65
2022/06/11 05:54:06;;;;;;;0.82;0.60;;;23.80;47.70;;;;;;5042982;28;20049;-64
2022/06/11 05:56:32;;;;;;;0.50;0.50;;;23.80;47.70;;;;;;5033915;28;20043;-65
2022/06/11 05:59:07;;;;;;;0.70;0.60;;;23.80;47.70;;;;;;5034831;28;20128;-63
2022/06/11 06:01:37;;;;;;;1.65;0.90;;;23.80;47.60;;;;;;5043852;28;20156;-64
2022/06/11 06:04:03;;;;;;;1.42;1.10;;;23.80;47.40;;;;;;5035214;28;20518;-64
2022/06/11 06:06:28;;;;;;;2.03;1.35;;;23.80;47.30;;;;;;5037400;28;20109;-64
2022/06/11 06:08:54;;;;;;;2.78;1.58;;;23.80;47.20;;;;;;5037787;28;20040;-64
2022/06/11 06:11:20;;;;;;;2.58;1.48;;;23.70;46.90;;;;;;5037487;28;20111;-65
2022/06/11 06:13:46;;;;;;;3.55;1.33;;;23.60;47.20;;;;;;5037956;28;20040;-65
2022/06/11 06:16:13;;;;;;;3.40;1.58;;;23.50;47.20;;;;;;5039112;28;20813;-65
2022/06/11 06:18:38;;;;;;;2.35;1.42;;;23.60;47.30;;;;;;5036618;28;20036;-62
2022/06/11 06:21:05;;;;;;;3.17;1.20;;;23.60;47.40;;;;;;5035385;28;20935;-65
2022/06/11 06:23:32;;;;;;;3.28;1.50;;;23.60;47.50;;;;;;5035164;28;20029;-65
2022/06/11 06:25:58;;;;;;;3.78;1.40;;;23.60;47.50;;;;;;5036345;28;20033;-63
2022/06/11 06:28:23;;;;;;;2.80;1.50;;;23.60;47.50;;;;;;5038204;28;20073;-64
2022/06/11 06:30:49;;;;;;;2.40;1.67;;;23.60;47.50;;;;;;5036874;28;20562;-62
2022/06/11 06:33:15;;;;;;;2.00;1.45;;;23.60;48.30;;;;;;5035041;28;20036;-65
2022/06/11 06:35:41;;;;;;;2.45;1.40;;;23.50;47.80;;;;;;5034364;28;20700;-62
2022/06/11 06:38:06;;;;;;;4.22;1.65;;;23.50;47.90;;;;;;5035578;28;20119;-64
2022/06/11 06:40:33;;;;;;;3.13;1.48;;;23.50;48.00;;;;;;5036159;28;20433;-65
2022/06/11 06:42:59;;;;;;;2.85;2.10;;;23.50;48.00;;;;;;5036251;28;20060;-65
2022/06/11 06:45:25;;;;;;;3.95;1.90;;;23.40;48.20;;;;;;5036008;28;20112;-62
2022/06/11 06:47:50;;;;;;;3.58;2.00;;;23.40;48.30;;;;;;5036667;28;20041;-65
2022/06/11 06:50:16;;;;;;;2.80;1.80;;;23.30;48.50;;;;;;5047135;28;21589;-65
2022/06/11 06:52:41;;;;;;;2.05;1.58;;;23.30;48.70;;;;;;5036704;28;20033;-65
2022/06/11 06:55:07;;;;;;;3.03;1.90;;;23.30;48.80;;;;;;5034078;28;21208;-65
2022/06/11 06:57:33;;;;;;;3.25;2.28;;;23.20;49.10;;;;;;5034718;28;20132;-65
2022/06/11 07:00:01;;;;;;;2.53;1.92;;;23.20;49.10;;;;;;5035615;28;20037;-63
2022/06/11 07:02:27;;;;;;;3.85;2.00;;;23.20;49.20;;;;;;5035978;28;20053;-64
2022/06/11 07:04:53;;;;;;;2.33;1.60;;;23.20;49.20;;;;;;5035440;28;20094;-64
2022/06/11 07:07:19;;;;;;;3.60;2.00;;;23.20;49.10;;;;;;5036259;28;20036;-63
2022/06/11 07:09:51;;;;;;;4.03;2.05;;;23.20;49.20;;;;;;5031873;28;20053;-65
2022/06/11 07:12:16;;;;;;;2.53;1.85;;;23.20;49.90;;;;;;5033782;28;20051;-61
2022/06/11 07:14:42;;;;;;;2.80;1.90;;;23.20;49.40;;;;;;5035579;28;20564;-62
2022/06/11 07:17:10;;;;;;;3.03;1.90;;;23.20;49.20;;;;;;5035285;28;20650;-61
2022/06/11 07:19:50;;;;;;;2.65;1.70;;;23.10;49.30;;;;;;5035317;28;20152;-65
2022/06/11 07:22:26;;;;;;;2.47;1.65;;;23.20;49.40;;;;;;5033913;28;20046;-65
2022/06/11 07:24:52;;;;;;;2.53;1.75;;;23.20;49.60;;;;;;5035972;28;20036;-65
2022/06/11 07:27:24;;;;;;;3.33;1.60;;;23.20;49.60;;;;;;5036539;28;20374;-62
2022/06/11 07:29:54;;;;;;;2.75;1.60;;;23.20;49.50;;;;;;5032611;28;20029;-65
2022/06/11 07:32:22;;;;;;;3.05;1.20;;;23.20;49.40;;;;;;5038272;28;20627;-66
2022/06/11 07:34:48;;;;;;;3.00;1.30;;;23.20;49.40;;;;;;5036142;28;20029;-64
2022/06/11 07:37:14;;;;;;;3.25;1.40;;;23.20;49.40;;;;;;5034363;28;20048;-65
2022/06/11 07:39:40;;;;;;;3.28;1.40;;;23.20;49.40;;;;;;5015162;28;20046;-65
2022/06/11 07:42:06;;;;;;;2.25;1.20;;;23.20;49.20;;;;;;5035551;28;20029;-66
2022/06/11 07:44:32;;;;;;;1.85;1.10;;;23.20;49.20;;;;;;5032983;28;20086;-62
2022/06/11 07:46:57;;;;;;;2.17;1.30;;;23.20;49.10;;;;;;5034186;28;20103;-62
2022/06/11 07:49:23;;;;;;;2.00;1.10;;;23.20;49.20;;;;;;5036939;28;20175;-65
2022/06/11 07:51:49;;;;;;;2.25;1.50;;;23.20;49.10;;;;;;5036537;28;20033;-62
2022/06/11 07:54:14;;;;;;;1.45;1.00;;;23.20;49.10;;;;;;5033752;28;20059;-65
2022/06/11 07:56:40;;;;;;;2.90;1.10;;;23.20;49.00;;;;;;5031737;28;20029;-64
2022/06/11 07:59:07;;;;;;;1.50;1.05;;;23.20;49.00;;;;;;5033343;28;20108;-66
2022/06/11 08:01:33;;;;;;;1.70;1.05;;;23.30;49.00;;;;;;5047480;28;20346;-63
2022/06/11 08:03:58;;;;;;;2.00;1.20;;;23.30;49.00;;;;;;5057442;28;20047;-65
2022/06/11 08:06:25;;;;;;;1.60;1.20;;;23.30;49.00;;;;;;5047550;28;20034;-65
2022/06/11 08:08:51;;;;;;;1.65;1.00;;;23.20;48.90;;;;;;5053425;28;20047;-65
2022/06/11 08:11:17;;;;;;;2.67;1.08;;;23.30;48.90;;;;;;5055986;28;20088;-64
2022/06/11 08:13:43;;;;;;;1.92;1.10;;;23.30;48.90;;;;;;5053940;28;20452;-62
2022/06/11 08:16:10;;;;;;;1.50;1.00;;;23.30;48.80;;;;;;5056562;28;20032;-65
2022/06/11 08:18:36;;;;;;;2.53;1.15;;;23.30;48.80;;;;;;5057694;28;20072;-63
2022/06/11 08:21:03;;;;;;;1.90;1.02;;;23.30;48.80;;;;;;5055786;28;20117;-65
2022/06/11 08:23:29;;;;;;;1.45;1.00;;;23.30;48.80;;;;;;5054842;28;20061;-65
2022/06/11 08:25:55;;;;;;;1.40;1.00;;;23.30;48.80;;;;;;5056020;28;20023;-65
2022/06/11 08:28:22;;;;;;;1.80;1.00;;;23.30;48.70;;;;;;5055913;28;20524;-65
2022/06/11 08:30:48;;;;;;;1.38;0.90;;;23.30;48.80;;;;;;5055213;28;20028;-64
2022/06/11 08:33:14;;;;;;;2.38;1.10;;;23.30;48.70;;;;;;5055343;28;20150;-63
2022/06/11 08:35:40;;;;;;;1.52;0.95;;;23.30;48.60;;;;;;5054211;28;20454;-63
2022/06/11 08:38:06;;;;;;;2.00;1.15;;;23.40;48.70;;;;;;5055815;28;20040;-63
2022/06/11 08:40:45;;;;;;;1.50;0.90;;;23.40;48.70;;;;;;5055716;28;20637;-64
2022/06/11 08:43:41;;;;;;;1.67;1.00;;;23.40;48.60;;;;;;5055325;28;20036;-63
2022/06/11 08:46:14;;;;;;;1.58;1.08;;;23.40;48.60;;;;;;5055740;28;20052;-65
2022/06/11 08:48:58;;;;;;;1.23;0.90;;;23.40;48.60;;;;;;5056853;28;20442;-62
2022/06/11 08:51:50;;;;;;;1.58;1.00;;;23.40;48.60;;;;;;5050163;28;20043;-63
2022/06/11 08:54:30;;;;;;;1.27;0.85;;;23.40;48.60;;;;;;5051690;28;20037;-64
2022/06/11 08:57:13;;;;;;;1.30;0.80;;;23.40;48.60;;;;;;5055014;28;20582;-63
2022/06/11 09:00:05;;;;;;;1.35;0.90;;;23.40;48.60;;;;;;5053972;28;20058;-65
2022/06/11 09:02:55;;;;;;;1.05;0.80;;;23.40;48.60;;;;;;5053706;28;20068;-64
2022/06/11 09:05:39;;;;;;;1.55;0.90;;;23.40;48.60;;;;;;5053873;28;20468;-65
2022/06/11 09:08:20;;;;;;;1.13;0.85;;;23.40;48.60;;;;;;5053904;28;20182;-65
2022/06/11 09:11:16;;;;;;;1.88;1.00;;;23.40;48.60;;;;;;5052873;28;20674;-65
2022/06/11 09:14:26;;;;;;;1.23;0.90;;;23.40;48.60;;;;;;5053288;28;20048;-63
2022/06/11 09:17:14;;;;;;;1.58;0.90;;;23.40;48.70;;;;;;5029912;28;20086;-63
2022/06/11 09:19:50;;;;;;;1.27;0.85;;;23.40;48.70;;;;;;5050600;28;20025;-65
2022/06/11 09:22:40;;;;;;;1.30;0.82;;;23.40;48.70;;;;;;5053283;28;20017;-64
2022/06/11 09:25:32;;;;;;;1.83;1.00;;;23.40;48.80;;;;;;5052589;28;20028;-63
2022/06/11 09:28:04;;;;;;;2.03;1.10;;;23.40;48.80;;;;;;5053308;28;20032;-65
2022/06/11 09:30:41;;;;;;;1.83;1.10;;;23.40;48.90;;;;;;5053369;28;20532;-64
2022/06/11 09:33:20;;;;;;;2.45;1.00;;;23.40;49.10;;;;;;5053352;28;20032;-65
2022/06/11 09:35:57;;;;;;;1.88;1.00;;;23.40;49.10;;;;;;5053864;28;20365;-66
2022/06/11 09:38:35;;;;;;;1.50;1.00;;;23.40;49.10;;;;;;5037361;28;20033;-65
2022/06/11 09:41:29;;;;;;;1.65;1.10;;;23.40;49.20;;;;;;5058511;28;20086;-62
2022/06/11 09:44:04;;;;;;;1.90;1.10;;;23.40;49.10;;;;;;5059658;28;20139;-63
2022/06/11 09:46:39;;;;;;;1.65;1.00;;;23.40;49.10;;;;;;5060541;28;20086;-62
2022/06/11 09:49:19;;;;;;;1.95;0.90;;;23.40;49.10;;;;;;5060114;28;20108;-63
2022/06/11 09:52:00;;;;;;;1.58;1.00;;;23.40;49.00;;;;;;5059524;28;20037;-65
2022/06/11 09:54:32;;;;;;;1.67;0.98;;;23.40;49.00;;;;;;5056170;28;20036;-64
2022/06/11 09:57:20;;;;;;;3.47;1.05;;;23.40;49.10;;;;;;5059914;28;20028;-65
2022/06/11 09:59:49;;;;;;;1.00;0.80;;;23.40;49.00;;;;;;5058857;28;20028;-65
2022/06/11 10:02:43;;;;;;;1.52;1.00;;;23.40;49.00;;;;;;5059389;28;20507;-63
2022/06/11 10:05:19;;;;;;;1.20;0.90;;;23.40;49.00;;;;;;5058571;28;20056;-64
2022/06/11 10:07:49;;;;;;;1.45;0.88;;;23.40;49.00;;;;;;5058293;28;20124;-63
2022/06/11 10:10:31;;;;;;;1.63;0.93;;;23.50;49.00;;;;;;5057071;28;20641;-64
2022/06/11 10:13:05;;;;;;;1.13;0.88;;;23.50;49.10;;;;;;5059397;28;20044;-65
2022/06/11 10:15:34;;;;;;;1.00;0.80;;;23.40;49.00;;;;;;5059006;28;20032;-65
2022/06/11 10:18:17;;;;;;;1.80;0.80;;;23.50;49.10;;;;;;5059977;28;20021;-65
2022/06/11 10:20:49;;;;;;;1.40;0.90;;;23.50;49.10;;;;;;5058723;28;20577;-63
2022/06/11 10:23:27;;;;;;;2.55;0.93;;;23.50;49.10;;;;;;5056918;28;20119;-66
2022/06/11 10:26:22;;;;;;;1.52;1.00;;;23.50;49.10;;;;;;5058737;28;20031;-65
2022/06/11 10:29:07;;;;;;;1.85;0.90;;;23.50;49.10;;;;;;5059379;28;20020;-62
2022/06/11 10:31:44;;;;;;;1.63;0.90;;;23.50;49.10;;;;;;5058882;28;20126;-65
2022/06/11 10:34:28;;;;;;;1.25;0.95;;;23.50;49.10;;;;;;5057739;28;20437;-65
2022/06/11 10:37:07;;;;;;;1.88;1.00;;;23.50;49.10;;;;;;5058021;28;20044;-63
2022/06/11 10:40:10;;;;;;;1.35;0.90;;;23.50;49.10;;;;;;5058259;28;20690;-65
2022/06/11 10:42:42;;;;;;;1.27;0.80;;;23.50;49.20;;;;;;5059326;28;20032;-63
2022/06/11 10:45:13;;;;;;;1.70;1.00;;;23.50;49.20;;;;;;5058477;28;20548;-65
2022/06/11 10:47:43;;;;;;;2.78;1.00;;;23.50;49.20;;;;;;5059890;28;20047;-65
2022/06/11 10:50:11;;;;;;;1.27;0.80;;;23.50;49.10;;;;;;5058813;28;20625;-65
2022/06/11 10:52:43;;;;;;;1.02;0.90;;;23.50;49.10;;;;;;5057396;28;20468;-65
2022/06/11 10:55:18;;;;;;;0.93;0.80;;;23.50;49.10;;;;;;5058277;28;20043;-63
2022/06/11 10:57:48;;;;;;;1.55;0.98;;;23.50;49.10;;;;;;5058059;28;20071;-63
2022/06/11 11:00:28;;;;;;;1.05;0.80;;;23.50;49.10;;;;;;5039049;28;20024;-63
2022/06/11 11:03:29;;;;;;;1.70;0.80;;;23.50;49.20;;;;;;5059091;28;20025;-65
2022/06/11 11:06:05;;;;;;;1.40;0.93;;;23.60;49.20;;;;;;5058577;28;20028;-65
2022/06/11 11:08:33;;;;;;;0.95;0.73;;;23.50;49.20;;;;;;5056449;28;20024;-64
2022/06/11 11:11:00;;;;;;;1.10;0.98;;;23.50;49.10;;;;;;5058264;28;20028;-64
2022/06/11 11:13:36;;;;;;;1.50;0.80;;;23.50;49.10;;;;;;5058211;28;20151;-65
2022/06/11 11:16:13;;;;;;;1.20;0.90;;;23.60;49.10;;;;;;5055367;28;20066;-65
2022/06/11 11:18:49;;;;;;;1.00;0.80;;;23.50;49.10;;;;;;5056268;28;20032;-64
2022/06/11 11:21:32;;;;;;;1.20;0.80;;;23.60;49.10;;;;;;5057074;28;20032;-66
2022/06/11 11:24:05;;;;;;;1.23;0.80;;;23.60;49.10;;;;;;5054129;28;20058;-65
2022/06/11 11:26:37;;;;;;;1.30;0.80;;;23.60;49.10;;;;;;5055800;28;20059;-65
2022/06/11 11:29:18;;;;;;;1.10;0.80;;;23.60;49.20;;;;;;5056026;28;20112;-63
2022/06/11 11:31:47;;;;;;;1.80;0.88;;;23.60;49.10;;;;;;5056315;28;20170;-65
2022/06/11 11:34:21;;;;;;;1.70;1.00;;;23.60;49.20;;;;;;5053618;28;20036;-65
2022/06/11 11:36:47;;;;;;;1.08;0.80;;;23.60;49.20;;;;;;5056622;28;20036;-64
2022/06/11 11:39:13;;;;;;;0.70;0.60;;;23.60;49.10;;;;;;5055553;28;20024;-62
2022/06/11 11:41:59;;;;;;;1.25;0.80;;;23.60;49.10;;;;;;5056782;28;20037;-64
2022/06/11 11:44:25;;;;;;;1.48;0.90;;;23.60;49.10;;;;;;5054541;28;20101;-63
2022/06/11 11:46:54;;;;;;;1.27;0.95;;;23.60;49.10;;;;;;5054916;28;20048;-65
2022/06/11 11:49:24;;;;;;;1.00;0.90;;;23.60;49.10;;;;;;5056014;28;20058;-63
2022/06/11 11:51:50;;;;;;;0.98;0.80;;;23.60;49.10;;;;;;5054984;28;20036;-65
2022/06/11 11:54:25;;;;;;;1.10;0.80;;;23.60;49.20;;;;;;5053229;28;20211;-63
2022/06/11 11:56:53;;;;;;;1.02;0.88;;;23.60;49.10;;;;;;5055801;28;20119;-66
2022/06/11 11:59:37;;;;;;;1.10;0.80;;;23.60;49.10;;;;;;5055858;28;20484;-66
2022/06/11 12:02:22;;;;;;;1.40;0.80;;;23.60;49.10;;;;;;5055417;28;20388;-61
2022/06/11 12:04:57;;;;;;;0.93;0.80;;;23.60;49.10;;;;;;5054358;28;20032;-65
2022/06/11 12:07:34;;;;;;;0.95;0.80;;;23.60;49.10;;;;;;5054949;28;20028;-62
2022/06/11 12:10:25;;;;;;;0.98;0.80;;;23.70;49.10;;;;;;5053712;28;20036;-63
2022/06/11 12:12:54;;;;;;;1.33;0.82;;;23.70;49.10;;;;;;5055406;28;20024;-65
2022/06/11 12:15:27;;;;;;;1.00;0.90;;;23.70;49.10;;;;;;5056904;28;20028;-65
2022/06/11 12:18:08;;;;;;;0.82;0.77;;;23.70;49.10;;;;;;5057006;28;20028;-65
2022/06/11 12:20:46;;;;;;;1.23;0.88;;;23.70;49.10;;;;;;5059156;28;20747;-64
2022/06/11 12:23:39;;;;;;;0.82;0.80;;;23.70;49.10;;;;;;5055762;28;20032;-66
2022/06/11 12:26:23;;;;;;;1.45;0.90;;;23.70;49.10;;;;;;5057855;28;20036;-65
2022/06/11 12:29:30;;;;;;;0.88;0.70;;;23.70;49.10;;;;;;5057604;28;20033;-62
2022/06/11 12:32:00;;;;;;;1.00;0.90;;;23.70;49.00;;;;;;4956478;28;20050;-63
2022/06/11 12:34:29;;;;;;;1.00;0.75;;;23.70;49.00;;;;;;4955319;28;20453;-62
2022/06/11 12:37:00;;;;;;;;;;;23.70;49.00;;;;;;5010988;28;20452;-64
2022/06/11 12:39:48;;;;;;;1.08;0.88;;;23.70;49.00;;;;;;5055998;28;20257;-64
2022/06/11 12:42:54;;;;;;;0.73;0.68;;;23.70;49.00;;;;;;5057395;28;20021;-64
2022/06/11 12:45:41;;;;;;;1.15;0.80;;;23.70;49.00;;;;;;5056128;28;20240;-66
2022/06/11 12:48:40;;;;;;;0.88;0.80;;;23.70;49.00;;;;;;5058517;28;20036;-65
2022/06/11 12:51:28;;;;;;;1.00;0.75;;;23.70;49.00;;;;;;5057730;28;20155;-63
2022/06/11 12:53:57;;;;;;;1.10;0.85;;;23.70;49.00;;;;;;5054324;28;20143;-63
2022/06/11 12:56:42;;;;;;;2.20;0.80;;;23.70;49.00;;;;;;5057037;28;20387;-65
2022/06/11 12:59:13;;;;;;;1.55;0.85;;;23.70;49.00;;;;;;5056946;28;20020;-64
2022/06/11 13:01:53;;;;;;;0.93;0.70;;;23.70;48.90;;;;;;5056910;28;20067;-65
2022/06/11 13:04:36;;;;;;;1.20;0.80;;;23.70;48.90;;;;;;5056919;28;20093;-64
2022/06/11 13:07:02;;;;;;;0.73;0.73;;;23.80;49.00;;;;;;5057835;28;20012;-65
2022/06/11 13:10:07;;;;;;;0.70;0.70;;;23.80;49.00;;;;;;5054438;28;20032;-66
2022/06/11 13:12:57;;;;;;;1.05;0.70;;;23.80;49.00;;;;;;5052597;28;20043;-64
2022/06/11 13:15:43;;;;;;;2.60;0.82;;;23.80;49.00;;;;;;5055992;28;20060;-65
2022/06/11 13:18:21;;;;;;;1.00;0.73;;;23.80;49.00;;;;;;5056337;28;20024;-64
2022/06/11 13:20:55;;;;;;;0.98;0.80;;;23.80;49.00;;;;;;5057433;28;20387;-64